Time;durP1;ratioP1;P1;durP2;ratioP2;P2;SDS_P1;SDS_P2;PMS_P1;PMS_P2;Temp;Humidity;BMP_temperature;BMP_pressure;BME280_temperature;BME280_humidity;BME280_pressure;Samples;Min_cycle;Max_cycle;Signal;HPM_P1;HPM_P2
2023/11/20 00:02:43;;;;;;;11.63;7.03;;;;;;;;;;6232970;28;20034;-65
2023/11/20 00:05:45;;;;;;;11.25;7.55;;;;;;;;;;6243362;27;20854;-65
2023/11/20 00:08:47;;;;;;;15.43;9.30;;;;;;;;;;6232968;28;20045;-65
2023/11/20 00:11:50;;;;;;;15.48;9.98;;;;;;;;;;6232809;28;20041;-65
2023/11/20 00:14:52;;;;;;;14.40;7.75;;;;;;;;;;6232359;28;20053;-65
2023/11/20 00:17:55;;;;;;;11.43;6.68;;;;;;;;;;6270406;27;20051;-64
2023/11/20 00:20:57;;;;;;;15.52;6.70;;;;;;;;;;6245347;27;20088;-65
2023/11/20 00:23:59;;;;;;;9.02;6.53;;;;;;;;;;6233701;28;20515;-65
2023/11/20 00:27:00;;;;;;;10.90;6.57;;;;;;;;;;6234125;28;20060;-65
2023/11/20 00:30:03;;;;;;;13.07;7.15;;;;;;;;;;6228992;28;20049;-65
2023/11/20 00:33:05;;;;;;;9.80;6.20;;;;;;;;;;6262224;27;20047;-64
2023/11/20 00:36:09;;;;;;;32.10;18.90;;;;;;;;;;6255721;27;20054;-64
2023/11/20 00:39:11;;;;;;;46.03;32.05;;;;;;;;;;6235350;27;20139;-65
2023/11/20 00:42:13;;;;;;;9.95;6.80;;;;;;;;;;6233302;28;20061;-64
2023/11/20 00:45:15;;;;;;;14.43;8.75;;;;;;;;;;6234526;28;20788;-65
2023/11/20 00:48:17;;;;;;;10.07;5.15;;;;;;;;;;6234683;28;20133;-64
2023/11/20 00:51:19;;;;;;;5.47;4.10;;;;;;;;;;6241902;27;20041;-64
2023/11/20 00:54:21;;;;;;;4.55;2.38;;;;;;;;;;6227569;28;20621;-65
2023/11/20 00:57:23;;;;;;;14.73;6.60;;;;;;;;;;6228152;28;20148;-65
2023/11/20 01:00:25;;;;;;;6.82;3.47;;;;;;;;;;6226376;27;20866;-65
2023/11/20 01:03:28;;;;;;;4.97;2.53;;;;;;;;;;6225037;28;20748;-65
2023/11/20 01:06:30;;;;;;;7.57;5.15;;;;;;;;;;6258325;27;20787;-65
2023/11/20 01:09:32;;;;;;;4.70;2.38;;;;;;;;;;6274723;27;20644;-65
2023/11/20 01:12:34;;;;;;;4.25;2.90;;;;;;;;;;6264068;27;20049;-65
2023/11/20 01:15:36;;;;;;;5.40;3.65;;;;;;;;;;6234109;28;20053;-64
2023/11/20 01:18:38;;;;;;;4.60;3.42;;;;;;;;;;6230055;28;20057;-65
2023/11/20 01:21:42;;;;;;;5.07;3.95;;;;;;;;;;6220297;28;20098;-65
2023/11/20 01:24:44;;;;;;;5.45;2.60;;;;;;;;;;6239906;27;20885;-65
2023/11/20 01:27:46;;;;;;;5.38;3.75;;;;;;;;;;6232074;28;20050;-65
2023/11/20 01:30:48;;;;;;;6.20;3.97;;;;;;;;;;6220976;28;20845;-65
2023/11/20 01:33:50;;;;;;;5.05;3.30;;;;;;;;;;6239237;27;20066;-65
2023/11/20 01:36:52;;;;;;;11.82;7.00;;;;;;;;;;6290268;28;20053;-65
2023/11/20 01:39:54;;;;;;;7.05;4.22;;;;;;;;;;6253330;28;20626;-65
2023/11/20 01:42:57;;;;;;;12.27;5.82;;;;;;;;;;6270529;27;20052;-65
2023/11/20 01:46:06;;;;;;;9.10;5.82;;;;;;;;;;6236651;28;20083;-65
2023/11/20 01:49:10;;;;;;;9.02;5.80;;;;;;;;;;6275528;28;20049;-65
2023/11/20 01:52:13;;;;;;;13.13;5.75;;;;;;;;;;6310653;28;20058;-65
2023/11/20 01:55:15;;;;;;;8.50;5.25;;;;;;;;;;6215610;28;20106;-65
2023/11/20 01:58:18;;;;;;;6.15;3.47;;;;;;;;;;6267208;28;20047;-64
2023/11/20 02:01:21;;;;;;;7.15;4.57;;;;;;;;;;6220936;28;20098;-64
2023/11/20 02:04:24;;;;;;;6.75;4.13;;;;;;;;;;6265743;28;20107;-65
2023/11/20 02:07:26;;;;;;;8.07;3.83;;;;;;;;;;6232697;28;20620;-65
2023/11/20 02:10:28;;;;;;;5.18;3.20;;;;;;;;;;6242913;28;20053;-65
2023/11/20 02:13:31;;;;;;;4.07;2.53;;;;;;;;;;6218692;28;20099;-65
2023/11/20 02:16:33;;;;;;;6.15;3.42;;;;;;;;;;6229992;28;20118;-64
2023/11/20 02:19:35;;;;;;;5.00;2.78;;;;;;;;;;6295875;28;20043;-65
2023/11/20 02:22:39;;;;;;;5.40;2.70;;;;;;;;;;6230198;28;20046;-65
2023/11/20 02:25:41;;;;;;;4.20;1.92;;;;;;;;;;6272534;28;20039;-65
2023/11/20 02:28:57;;;;;;;3.83;2.85;;;;;;;;;;6280708;27;20120;-65
2023/11/20 02:31:59;;;;;;;4.93;3.50;;;;;;;;;;6241723;28;20232;-65
2023/11/20 02:35:01;;;;;;;3.95;2.83;;;;;;;;;;6249666;28;20125;-65
2023/11/20 02:38:06;;;;;;;3.67;2.33;;;;;;;;;;6247447;28;20049;-65
2023/11/20 02:41:09;;;;;;;4.70;2.78;;;;;;;;;;6239394;28;20042;-65
2023/11/20 02:44:11;;;;;;;6.47;3.13;;;;;;;;;;6249393;27;20041;-65
2023/11/20 02:47:14;;;;;;;4.05;2.67;;;;;;;;;;6258694;27;20051;-65
2023/11/20 02:50:16;;;;;;;4.75;2.17;;;;;;;;;;6294561;27;20054;-64
2023/11/20 02:53:19;;;;;;;6.90;3.38;;;;;;;;;;6296949;27;20479;-65
2023/11/20 02:56:21;;;;;;;9.15;3.40;;;;;;;;;;6240092;27;20194;-64
2023/11/20 02:59:23;;;;;;;8.90;4.75;;;;;;;;;;6280332;27;20057;-65
2023/11/20 03:02:25;;;;;;;4.80;3.00;;;;;;;;;;6255539;27;20436;-64
2023/11/20 03:05:27;;;;;;;4.13;2.97;;;;;;;;;;6240680;27;20776;-65
2023/11/20 03:08:29;;;;;;;5.80;3.60;;;;;;;;;;6247302;27;20043;-65
2023/11/20 03:11:31;;;;;;;8.98;4.60;;;;;;;;;;6247013;27;20056;-65
2023/11/20 03:14:33;;;;;;;13.73;9.32;;;;;;;;;;6271735;27;20049;-65
2023/11/20 03:17:35;;;;;;;14.65;8.13;;;;;;;;;;6300046;27;20539;-65
2023/11/20 03:20:37;;;;;;;26.25;14.45;;;;;;;;;;6235722;28;20442;-66
2023/11/20 03:23:40;;;;;;;16.85;9.38;;;;;;;;;;6267826;27;20049;-65
2023/11/20 03:26:42;;;;;;;8.48;4.95;;;;;;;;;;6289360;27;20128;-65
2023/11/20 03:29:45;;;;;;;6.80;4.30;;;;;;;;;;6241239;27;20048;-65
2023/11/20 03:32:47;;;;;;;4.97;3.53;;;;;;;;;;6317901;27;20040;-65
2023/11/20 03:35:49;;;;;;;6.45;3.80;;;;;;;;;;6302375;27;20048;-65
2023/11/20 03:38:51;;;;;;;6.10;4.00;;;;;;;;;;6261442;27;21263;-65
2023/11/20 03:41:53;;;;;;;6.07;3.95;;;;;;;;;;6227356;28;20058;-65
2023/11/20 03:44:56;;;;;;;7.18;3.92;;;;;;;;;;6232259;28;20038;-66
2023/11/20 03:47:58;;;;;;;12.95;7.82;;;;;;;;;;6248503;27;20818;-65
2023/11/20 03:51:04;;;;;;;9.13;5.38;;;;;;;;;;6263636;27;20054;-65
2023/11/20 03:54:07;;;;;;;8.57;4.32;;;;;;;;;;6226795;28;20125;-65
2023/11/20 03:57:10;;;;;;;14.18;8.35;;;;;;;;;;6251742;27;20102;-65
2023/11/20 04:00:13;;;;;;;11.57;6.78;;;;;;;;;;6240735;27;20095;-65
2023/11/20 04:03:15;;;;;;;17.10;9.07;;;;;;;;;;6243964;27;20534;-65
2023/11/20 04:06:17;;;;;;;19.85;8.65;;;;;;;;;;6307027;27;20556;-66
2023/11/20 04:09:19;;;;;;;17.50;7.55;;;;;;;;;;6256775;27;20047;-66
2023/11/20 04:12:21;;;;;;;12.60;6.20;;;;;;;;;;6249545;27;20126;-66
2023/11/20 04:15:24;;;;;;;5.97;4.05;;;;;;;;;;6245451;27;20048;-65
2023/11/20 04:18:27;;;;;;;5.75;3.45;;;;;;;;;;6230596;27;20102;-65
2023/11/20 04:21:31;;;;;;;7.10;3.67;;;;;;;;;;6267076;27;20094;-65
2023/11/20 04:24:34;;;;;;;4.95;2.97;;;;;;;;;;6248585;27;20303;-66
2023/11/20 04:27:36;;;;;;;5.78;3.83;;;;;;;;;;6248052;27;20052;-68
2023/11/20 04:30:38;;;;;;;7.53;3.42;;;;;;;;;;6258434;27;20726;-65
2023/11/20 04:33:42;;;;;;;8.05;4.07;;;;;;;;;;6224527;28;20042;-65
2023/11/20 04:36:45;;;;;;;7.70;4.72;;;;;;;;;;6228472;28;20046;-66
2023/11/20 04:39:47;;;;;;;6.45;4.40;;;;;;;;;;6232502;28;20073;-66
2023/11/20 04:42:49;;;;;;;9.13;4.53;;;;;;;;;;6267151;27;20079;-66
2023/11/20 04:45:52;;;;;;;9.07;3.45;;;;;;;;;;6229690;28;20046;-65
2023/11/20 04:48:54;;;;;;;6.45;4.47;;;;;;;;;;6268769;27;20064;-66
2023/11/20 04:51:56;;;;;;;6.85;4.35;;;;;;;;;;6239301;27;20095;-66
2023/11/20 04:55:00;;;;;;;5.93;3.58;;;;;;;;;;6239884;27;20151;-65
2023/11/20 04:58:02;;;;;;;35.13;20.75;;;;;;;;;;6254185;27;20049;-65
2023/11/20 05:01:05;;;;;;;13.98;8.40;;;;;;;;;;6245908;27;20046;-66
2023/11/20 05:04:07;;;;;;;16.88;9.13;;;;;;;;;;6241711;27;20050;-66
2023/11/20 05:07:10;;;;;;;36.28;14.73;;;;;;;;;;6252127;27;20042;-65
2023/11/20 05:10:12;;;;;;;32.97;16.65;;;;;;;;;;6235971;27;20064;-65
2023/11/20 05:13:17;;;;;;;20.30;12.50;;;;;;;;;;6281492;27;20060;-65
2023/11/20 05:16:19;;;;;;;66.68;30.48;;;;;;;;;;6261819;27;20785;-65
2023/11/20 05:19:21;;;;;;;42.88;21.63;;;;;;;;;;6265517;27;20105;-65
2023/11/20 05:22:23;;;;;;;25.33;13.20;;;;;;;;;;6239956;28;20131;-65
2023/11/20 05:25:26;;;;;;;23.30;13.25;;;;;;;;;;6236201;27;20659;-65
2023/11/20 05:28:29;;;;;;;68.07;27.15;;;;;;;;;;6238110;27;20051;-65
2023/11/20 05:31:31;;;;;;;44.67;17.90;;;;;;;;;;6256567;27;20050;-66
2023/11/20 05:34:35;;;;;;;30.98;12.68;;;;;;;;;;6280974;27;20035;-67
2023/11/20 05:37:39;;;;;;;18.30;7.50;;;;;;;;;;6242631;28;20145;-66
2023/11/20 05:40:42;;;;;;;19.13;8.43;;;;;;;;;;6254942;27;20061;-66
2023/11/20 05:43:44;;;;;;;11.10;4.32;;;;;;;;;;6230662;28;20058;-66
2023/11/20 05:46:46;;;;;;;13.35;6.13;;;;;;;;;;6238155;28;20508;-66
2023/11/20 05:49:51;;;;;;;60.05;18.38;;;;;;;;;;6284676;28;20052;-66
2023/11/20 05:52:53;;;;;;;30.55;12.00;;;;;;;;;;6243920;28;20045;-66
2023/11/20 05:55:55;;;;;;;17.10;9.07;;;;;;;;;;6264846;28;20047;-66
2023/11/20 05:58:57;;;;;;;27.98;16.48;;;;;;;;;;6243202;28;20867;-66
2023/11/20 06:02:00;;;;;;;7.85;5.40;;;;;;;;;;6231169;27;20562;-66
2023/11/20 06:05:03;;;;;;;26.77;12.00;;;;;;;;;;6267027;28;20046;-66
2023/11/20 06:08:08;;;;;;;27.50;11.20;;;;;;;;;;6304882;28;20057;-66
2023/11/20 06:11:19;;;;;;;11.52;6.63;;;;;;;;;;6250232;27;20047;-66
2023/11/20 06:14:22;;;;;;;7.18;4.75;;;;;;;;;;6289316;27;20044;-66
2023/11/20 06:17:24;;;;;;;9.70;4.47;;;;;;;;;;6255172;27;20126;-65
2023/11/20 06:20:26;;;;;;;8.40;4.40;;;;;;;;;;6241660;27;20052;-66
2023/11/20 06:23:28;;;;;;;7.25;4.07;;;;;;;;;;6219051;28;20037;-66
2023/11/20 06:26:30;;;;;;;17.48;8.70;;;;;;;;;;6238978;27;20060;-66
2023/11/20 06:29:32;;;;;;;10.00;7.43;;;;;;;;;;6274629;27;20115;-66
2023/11/20 06:32:35;;;;;;;9.82;6.60;;;;;;;;;;6237033;27;20061;-66
2023/11/20 06:35:37;;;;;;;9.68;5.95;;;;;;;;;;6238537;27;20084;-66
2023/11/20 06:38:39;;;;;;;13.45;6.05;;;;;;;;;;6246209;27;20038;-66
2023/11/20 06:41:42;;;;;;;14.35;8.23;;;;;;;;;;6239627;27;20050;-66
2023/11/20 06:44:44;;;;;;;10.48;6.13;;;;;;;;;;6235235;27;20098;-66
2023/11/20 06:47:46;;;;;;;7.97;6.38;;;;;;;;;;6235196;28;20054;-70
2023/11/20 06:50:49;;;;;;;7.63;4.93;;;;;;;;;;6237499;27;20045;-70
2023/11/20 06:53:51;;;;;;;10.13;5.57;;;;;;;;;;6226484;28;20044;-70
2023/11/20 06:56:53;;;;;;;12.63;7.07;;;;;;;;;;6271437;27;20551;-70
2023/11/20 06:59:55;;;;;;;16.52;10.45;;;;;;;;;;6236335;28;20083;-69
2023/11/20 07:02:58;;;;;;;17.98;6.07;;;;;;;;;;6232606;28;20638;-71
2023/11/20 07:06:01;;;;;;;7.05;5.03;;;;;;;;;;6251132;27;20038;-70
2023/11/20 07:09:12;;;;;;;15.93;10.13;;;;;;;;;;6225169;27;20516;-70
2023/11/20 07:12:14;;;;;;;7.88;3.90;;;;;;;;;;6228452;28;20797;-70
2023/11/20 07:15:16;;;;;;;10.88;7.00;;;;;;;;;;6247378;27;20552;-70
2023/11/20 07:18:18;;;;;;;10.18;7.57;;;;;;;;;;6234693;28;20042;-69
2023/11/20 07:21:20;;;;;;;8.32;4.70;;;;;;;;;;6236387;27;20084;-70
2023/11/20 07:24:25;;;;;;;7.85;5.93;;;;;;;;;;6225430;28;20050;-71
2023/11/20 07:27:27;;;;;;;8.90;5.68;;;;;;;;;;6241274;27;20129;-70
2023/11/20 07:30:31;;;;;;;12.45;6.75;;;;;;;;;;6280637;27;20092;-69
2023/11/20 07:33:33;;;;;;;7.65;5.93;;;;;;;;;;6233041;27;20076;-69
2023/11/20 07:36:35;;;;;;;8.43;5.95;;;;;;;;;;6245374;27;20808;-69
2023/11/20 07:39:37;;;;;;;13.27;7.63;;;;;;;;;;6232734;28;20057;-69
2023/11/20 07:42:40;;;;;;;10.43;6.82;;;;;;;;;;6256341;27;20080;-69
2023/11/20 07:45:42;;;;;;;7.28;4.28;;;;;;;;;;6272391;27;20049;-70
2023/11/20 07:48:44;;;;;;;8.10;5.10;;;;;;;;;;6241512;27;20064;-69
2023/11/20 07:51:46;;;;;;;7.50;4.38;;;;;;;;;;6232473;27;20723;-68
2023/11/20 07:54:48;;;;;;;6.80;4.55;;;;;;;;;;6229760;28;20038;-68
2023/11/20 07:57:50;;;;;;;18.27;11.32;;;;;;;;;;6254100;27;20054;-68
2023/11/20 08:00:53;;;;;;;11.57;9.43;;;;;;;;;;6263679;27;20784;-72
2023/11/20 08:03:55;;;;;;;28.13;16.15;;;;;;;;;;6274908;27;20049;-72
2023/11/20 08:06:57;;;;;;;8.52;5.18;;;;;;;;;;6230628;28;20052;-71
2023/11/20 08:10:00;;;;;;;8.88;5.38;;;;;;;;;;6225539;28;20193;-71
2023/11/20 08:13:04;;;;;;;12.00;6.07;;;;;;;;;;6221013;28;20612;-71
2023/11/20 08:16:08;;;;;;;9.52;6.13;;;;;;;;;;6237264;27;20072;-70
2023/11/20 08:19:10;;;;;;;14.73;8.45;;;;;;;;;;6237546;27;20053;-71
2023/11/20 08:22:13;;;;;;;7.70;5.43;;;;;;;;;;6243885;27;20052;-70
2023/11/20 08:25:15;;;;;;;14.02;9.05;;;;;;;;;;6273873;27;20130;-71
2023/11/20 08:28:17;;;;;;;36.15;14.95;;;;;;;;;;6230114;28;20055;-70
2023/11/20 08:31:19;;;;;;;29.73;12.95;;;;;;;;;;6233011;27;20060;-70
2023/11/20 08:34:21;;;;;;;10.63;6.57;;;;;;;;;;6220497;28;20055;-70
2023/11/20 08:37:24;;;;;;;15.82;9.05;;;;;;;;;;6224318;28;20049;-70
2023/11/20 08:40:27;;;;;;;8.30;6.80;;;;;;;;;;6234499;27;20800;-69
2023/11/20 08:43:29;;;;;;;12.25;5.75;;;;;;;;;;6272339;27;20042;-70
2023/11/20 08:46:31;;;;;;;7.65;5.15;;;;;;;;;;6249678;27;23797;-70
2023/11/20 08:49:33;;;;;;;16.55;8.80;;;;;;;;;;6276344;27;20053;-70
2023/11/20 08:52:36;;;;;;;15.02;5.07;;;;;;;;;;6250118;27;20078;-70
2023/11/20 08:55:38;;;;;;;6.65;4.70;;;;;;;;;;6259080;27;20167;-69
2023/11/20 08:58:40;;;;;;;8.02;4.65;;;;;;;;;;6244049;27;20041;-70
2023/11/20 09:01:42;;;;;;;7.80;4.00;;;;;;;;;;6269045;27;20099;-69
2023/11/20 09:04:44;;;;;;;10.55;5.10;;;;;;;;;;6268788;27;20356;-70
2023/11/20 09:07:46;;;;;;;8.57;5.15;;;;;;;;;;6253442;27;20055;-70
2023/11/20 09:10:48;;;;;;;8.27;5.22;;;;;;;;;;6258249;27;20524;-70
2023/11/20 09:13:51;;;;;;;9.23;5.93;;;;;;;;;;6252365;27;20072;-70
2023/11/20 09:16:53;;;;;;;10.77;4.90;;;;;;;;;;6238279;27;20065;-70
2023/11/20 09:19:55;;;;;;;8.38;4.63;;;;;;;;;;6290166;27;20054;-70
2023/11/20 09:22:56;;;;;;;8.80;5.07;;;;;;;;;;6243048;28;20053;-69
2023/11/20 09:25:58;;;;;;;7.70;4.70;;;;;;;;;;6232277;28;20049;-69
2023/11/20 09:29:01;;;;;;;7.45;4.35;;;;;;;;;;6227023;28;20053;-69
2023/11/20 09:32:03;;;;;;;8.07;5.45;;;;;;;;;;6251926;28;20182;-69
2023/11/20 09:35:08;;;;;;;12.20;6.07;;;;;;;;;;6270239;27;20038;-69
2023/11/20 09:38:12;;;;;;;8.73;4.50;;;;;;;;;;6238922;28;20054;-70
2023/11/20 09:41:14;;;;;;;6.13;4.10;;;;;;;;;;6223066;28;20068;-70
2023/11/20 09:44:19;;;;;;;7.32;4.13;;;;;;;;;;6237617;28;20088;-70
2023/11/20 09:47:21;;;;;;;7.28;3.88;;;;;;;;;;6245705;28;20057;-69
2023/11/20 09:50:26;;;;;;;6.72;3.42;;;;;;;;;;6241339;28;20057;-70
2023/11/20 09:53:35;;;;;;;6.57;3.40;;;;;;;;;;6245770;27;20507;-70
2023/11/20 09:56:38;;;;;;;9.75;3.25;;;;;;;;;;6278374;27;20043;-70
2023/11/20 09:59:41;;;;;;;5.93;3.63;;;;;;;;;;6264219;27;20132;-71
2023/11/20 10:02:45;;;;;;;6.80;4.88;;;;;;;;;;6231105;28;20045;-71
2023/11/20 10:05:48;;;;;;;4.93;3.13;;;;;;;;;;6245168;27;20061;-70
2023/11/20 10:08:51;;;;;;;9.13;4.30;;;;;;;;;;6241657;27;20053;-68
2023/11/20 10:11:54;;;;;;;6.40;3.03;;;;;;;;;;6234438;28;20049;-69
2023/11/20 10:14:56;;;;;;;7.43;4.57;;;;;;;;;;6246394;27;20060;-69
2023/11/20 10:18:00;;;;;;;4.90;3.15;;;;;;;;;;6232871;28;20084;-69
2023/11/20 10:21:05;;;;;;;5.80;2.10;;;;;;;;;;6238134;27;20053;-69
2023/11/20 10:24:09;;;;;;;2.83;1.35;;;;;;;;;;6238988;27;20039;-69
2023/11/20 10:27:13;;;;;;;2.90;1.50;;;;;;;;;;6224146;28;20046;-68
2023/11/20 10:30:18;;;;;;;3.92;1.25;;;;;;;;;;6241451;27;20731;-68
2023/11/20 10:33:21;;;;;;;2.95;1.65;;;;;;;;;;6259985;27;20054;-68
2023/11/20 10:36:23;;;;;;;4.78;2.15;;;;;;;;;;6278512;27;20513;-68
2023/11/20 10:39:25;;;;;;;3.30;1.80;;;;;;;;;;6248652;27;20099;-69
2023/11/20 10:42:28;;;;;;;6.82;2.50;;;;;;;;;;6277795;27;20046;-68
2023/11/20 10:45:33;;;;;;;5.97;3.92;;;;;;;;;;6273887;27;20046;-68
2023/11/20 10:48:38;;;;;;;4.07;2.42;;;;;;;;;;6266008;27;20049;-69
2023/11/20 10:51:44;;;;;;;3.67;1.90;;;;;;;;;;6270680;27;20126;-69
2023/11/20 10:54:52;;;;;;;6.35;2.80;;;;;;;;;;6226808;28;20049;-68
2023/11/20 10:57:55;;;;;;;4.75;2.20;;;;;;;;;;6265398;27;20061;-68
2023/11/20 11:01:00;;;;;;;2.17;1.17;;;;;;;;;;6221865;28;20064;-69
2023/11/20 11:04:02;;;;;;;11.98;5.93;;;;;;;;;;6252318;27;20123;-69
2023/11/20 11:07:09;;;;;;;8.25;5.03;;;;;;;;;;6232999;28;20060;-69
2023/11/20 11:10:11;;;;;;;4.32;1.77;;;;;;;;;;6245970;27;20056;-68
2023/11/20 11:13:18;;;;;;;7.40;3.80;;;;;;;;;;6299349;27;20045;-69
2023/11/20 11:16:29;;;;;;;6.75;2.92;;;;;;;;;;6251793;27;20140;-69
2023/11/20 11:19:37;;;;;;;6.38;1.80;;;;;;;;;;6251136;27;20095;-69
2023/11/20 11:22:43;;;;;;;7.25;3.60;;;;;;;;;;6251262;27;20052;-68
2023/11/20 11:26:19;;;;;;;5.07;1.85;;;;;;;;;;6220095;28;20050;-69
2023/11/20 11:29:31;;;;;;;5.90;2.17;;;;;;;;;;6208479;28;20041;-69
2023/11/20 11:32:54;;;;;;;4.10;1.38;;;;;;;;;;6262878;27;20088;-68
2023/11/20 11:35:56;;;;;;;3.05;1.30;;;;;;;;;;6267961;27;20039;-70
2023/11/20 11:39:22;;;;;;;6.80;2.15;;;;;;;;;;6252955;27;20049;-69
2023/11/20 11:42:37;;;;;;;3.28;1.77;;;;;;;;;;6239110;27;20080;-69
2023/11/20 11:45:44;;;;;;;3.85;2.08;;;;;;;;;;6249216;27;20039;-69
2023/11/20 11:48:46;;;;;;;6.15;2.33;;;;;;;;;;6259219;27;20057;-71
2023/11/20 11:51:55;;;;;;;5.22;2.58;;;;;;;;;;6256725;27;20064;-72
2023/11/20 11:55:13;;;;;;;4.20;2.15;;;;;;;;;;6243624;27;20178;-71
2023/11/20 11:58:15;;;;;;;4.20;3.03;;;;;;;;;;6244339;27;20694;-70
2023/11/20 12:01:18;;;;;;;3.85;1.50;;;;;;;;;;6258730;27;20060;-70
2023/11/20 12:04:49;;;;;;;3.83;2.47;;;;;;;;;;6235745;27;20038;-70
2023/11/20 12:07:58;;;;;;;3.08;1.73;;;;;;;;;;6231547;27;20625;-70
2023/11/20 12:11:00;;;;;;;5.43;2.58;;;;;;;;;;6268664;27;20053;-71
2023/11/20 12:14:07;;;;;;;3.17;2.10;;;;;;;;;;6275708;27;20105;-70
2023/11/20 12:17:09;;;;;;;3.42;1.60;;;;;;;;;;6275342;27;20382;-70
2023/11/20 12:20:11;;;;;;;4.88;2.45;;;;;;;;;;6232985;28;20202;-70
2023/11/20 12:23:32;;;;;;;5.28;2.95;;;;;;;;;;6310046;27;20053;-70
2023/11/20 12:26:36;;;;;;;3.90;2.03;;;;;;;;;;6262352;27;20113;-71
2023/11/20 12:29:40;;;;;;;5.18;1.70;;;;;;;;;;6244842;27;20053;-71
2023/11/20 12:32:42;;;;;;;13.40;5.72;;;;;;;;;;6291657;27;20050;-70
2023/11/20 12:35:52;;;;;;;6.32;3.17;;;;;;;;;;6266944;27;20102;-70
2023/11/20 12:38:55;;;;;;;3.63;2.47;;;;;;;;;;6235673;27;20061;-70
2023/11/20 12:41:57;;;;;;;5.60;1.95;;;;;;;;;;6237437;27;20102;-70
2023/11/20 12:45:00;;;;;;;6.13;2.63;;;;;;;;;;6225843;28;20756;-71
2023/11/20 12:48:04;;;;;;;3.40;1.95;;;;;;;;;;6305921;27;20049;-71
2023/11/20 12:51:07;;;;;;;7.00;4.03;;;;;;;;;;6224324;28;20046;-71
2023/11/20 12:54:10;;;;;;;5.63;2.45;;;;;;;;;;6254837;27;20049;-72
2023/11/20 12:57:12;;;;;;;3.78;1.95;;;;;;;;;;6224678;28;20081;-72
2023/11/20 13:00:18;;;;;;;3.67;1.95;;;;;;;;;;6228726;28;20432;-71
2023/11/20 13:03:20;;;;;;;3.70;2.10;;;;;;;;;;6232734;28;20148;-71
2023/11/20 13:06:22;;;;;;;4.82;2.80;;;;;;;;;;6238361;27;20780;-71
2023/11/20 13:09:25;;;;;;;7.93;2.60;;;;;;;;;;6224193;28;20033;-71
2023/11/20 13:12:28;;;;;;;6.95;2.00;;;;;;;;;;6249455;27;20091;-71
2023/11/20 13:15:31;;;;;;;5.57;1.63;;;;;;;;;;6238478;27;20074;-71
2023/11/20 13:18:45;;;;;;;5.88;2.58;;;;;;;;;;6241551;27;20057;-71
2023/11/20 13:21:49;;;;;;;5.70;2.83;;;;;;;;;;6219001;28;20058;-71
2023/11/20 13:24:52;;;;;;;5.28;1.73;;;;;;;;;;6232883;27;20067;-71
2023/11/20 13:27:58;;;;;;;7.05;2.63;;;;;;;;;;6241269;27;20057;-71
2023/11/20 13:31:09;;;;;;;7.70;3.45;;;;;;;;;;6221496;28;20054;-71
2023/11/20 13:34:13;;;;;;;11.55;5.25;;;;;;;;;;6221328;28;20049;-71
2023/11/20 13:37:15;;;;;;;6.50;3.08;;;;;;;;;;6233439;27;20128;-71
2023/11/20 13:40:18;;;;;;;8.30;3.78;;;;;;;;;;6230382;28;20034;-71
2023/11/20 13:43:23;;;;;;;10.82;4.53;;;;;;;;;;6230001;28;20050;-71
2023/11/20 13:46:27;;;;;;;12.68;6.78;;;;;;;;;;6238580;28;20140;-71
2023/11/20 13:49:30;;;;;;;16.65;7.90;;;;;;;;;;6242097;28;20054;-72
2023/11/20 13:52:32;;;;;;;17.13;7.93;;;;;;;;;;6258721;27;20145;-71
2023/11/20 13:55:35;;;;;;;9.85;3.80;;;;;;;;;;6226343;28;20033;-71
2023/11/20 13:58:37;;;;;;;10.77;5.82;;;;;;;;;;6242469;28;20440;-71
2023/11/20 14:01:39;;;;;;;12.25;7.97;;;;;;;;;;6231565;28;20734;-71
2023/11/20 14:04:42;;;;;;;9.55;5.47;;;;;;;;;;6240545;27;20037;-72
2023/11/20 14:07:45;;;;;;;14.50;8.85;;;;;;;;;;6229229;28;20045;-72
2023/11/20 14:11:00;;;;;;;7.85;4.65;;;;;;;;;;6231178;28;20056;-72
2023/11/20 14:14:03;;;;;;;3.58;2.38;;;;;;;;;;6238986;28;20464;-71
2023/11/20 14:17:05;;;;;;;7.70;4.53;;;;;;;;;;6268011;28;20119;-72
2023/11/20 14:20:08;;;;;;;6.35;3.58;;;;;;;;;;6231510;28;20555;-72
2023/11/20 14:23:10;;;;;;;7.85;3.28;;;;;;;;;;6245035;28;20041;-72
2023/11/20 14:26:17;;;;;;;6.47;4.15;;;;;;;;;;6233196;28;20465;-72
2023/11/20 14:29:34;;;;;;;6.25;3.80;;;;;;;;;;6241888;28;20050;-71
2023/11/20 14:32:42;;;;;;;6.18;4.10;;;;;;;;;;6269453;28;20575;-72
2023/11/20 14:35:44;;;;;;;7.13;2.83;;;;;;;;;;6228136;28;20791;-73
2023/11/20 14:38:46;;;;;;;5.45;2.78;;;;;;;;;;6235755;27;20049;-71
2023/11/20 14:41:48;;;;;;;11.77;5.78;;;;;;;;;;6272195;27;20045;-71
2023/11/20 14:44:53;;;;;;;;;;;;;;;;;;6251587;27;20049;-71
2023/11/20 14:47:55;;;;;;;9.93;4.75;;;;;;;;;;6241876;27;20000;-71
2023/11/20 14:50:57;;;;;;;10.48;6.82;;;;;;;;;;6235473;27;20042;-72
2023/11/20 14:54:01;;;;;;;14.25;7.90;;;;;;;;;;6291584;27;20064;-71
2023/11/20 14:57:03;;;;;;;8.07;5.65;;;;;;;;;;6288910;27;20050;-71
2023/11/20 15:00:07;;;;;;;13.75;8.60;;;;;;;;;;6235449;27;20065;-70
2023/11/20 15:03:10;;;;;;;9.80;5.35;;;;;;;;;;6246039;27;20519;-70
2023/11/20 15:06:13;;;;;;;7.53;4.32;;;;;;;;;;6244031;27;20046;-70
2023/11/20 15:09:18;;;;;;;6.30;3.72;;;;;;;;;;6249663;27;20049;-70
2023/11/20 15:12:20;;;;;;;10.43;4.38;;;;;;;;;;6241944;27;20043;-70
2023/11/20 15:15:23;;;;;;;8.20;3.80;;;;;;;;;;6264569;27;20061;-70
2023/11/20 15:18:25;;;;;;;6.90;2.90;;;;;;;;;;6236181;27;20049;-71
2023/11/20 15:21:27;;;;;;;7.60;4.47;;;;;;;;;;6287556;27;20052;-71
2023/11/20 15:24:29;;;;;;;8.77;4.25;;;;;;;;;;6289978;27;20174;-70
2023/11/20 15:27:37;;;;;;;8.18;4.55;;;;;;;;;;6223229;27;20171;-72
2023/11/20 15:30:40;;;;;;;10.05;3.47;;;;;;;;;;6228721;28;20053;-69
2023/11/20 15:33:43;;;;;;;12.55;5.88;;;;;;;;;;6228786;27;20087;-71
2023/11/20 15:36:46;;;;;;;26.15;11.95;;;;;;;;;;6235322;27;20064;-70
2023/11/20 15:39:49;;;;;;;16.58;8.82;;;;;;;;;;6257352;27;20476;-67
2023/11/20 15:42:53;;;;;;;9.93;5.13;;;;;;;;;;6249015;27;20046;-68
2023/11/20 15:45:56;;;;;;;8.93;5.13;;;;;;;;;;6246044;27;20086;-67
2023/11/20 15:48:58;;;;;;;5.47;3.22;;;;;;;;;;6253476;27;20921;-68
2023/11/20 15:52:04;;;;;;;6.22;3.50;;;;;;;;;;6243944;28;20053;-68
2023/11/20 15:55:10;;;;;;;6.13;4.32;;;;;;;;;;6257776;27;20056;-68
2023/11/20 15:58:12;;;;;;;5.35;2.63;;;;;;;;;;6225894;28;20744;-68
2023/11/20 16:01:14;;;;;;;12.63;6.07;;;;;;;;;;6257430;27;20060;-68
2023/11/20 16:04:29;;;;;;;20.55;15.18;;;;;;;;;;6229956;28;20548;-68
2023/11/20 16:07:31;;;;;;;16.90;11.52;;;;;;;;;;6252719;27;20041;-68
2023/11/20 16:10:33;;;;;;;9.35;6.20;;;;;;;;;;6255606;27;20046;-68
2023/11/20 16:13:35;;;;;;;10.68;5.38;;;;;;;;;;6255446;27;20132;-68
2023/11/20 16:16:38;;;;;;;9.73;6.07;;;;;;;;;;6223681;28;20102;-69
2023/11/20 16:19:40;;;;;;;11.50;5.32;;;;;;;;;;6253234;27;20042;-68
2023/11/20 16:22:42;;;;;;;6.57;4.32;;;;;;;;;;6276002;27;20043;-68
2023/11/20 16:25:45;;;;;;;11.15;4.40;;;;;;;;;;6257604;27;20045;-69
2023/11/20 16:28:49;;;;;;;9.93;7.57;;;;;;;;;;6244595;27;20057;-68
2023/11/20 16:31:56;;;;;;;17.08;8.13;;;;;;;;;;6262527;27;20130;-68
2023/11/20 16:34:58;;;;;;;19.85;9.20;;;;;;;;;;6232416;27;21182;-68
2023/11/20 16:38:01;;;;;;;14.23;7.50;;;;;;;;;;6285829;27;20055;-68
2023/11/20 16:41:03;;;;;;;14.45;6.78;;;;;;;;;;6229273;27;20052;-68
2023/11/20 16:44:08;;;;;;;13.80;7.70;;;;;;;;;;6263705;27;20038;-68
2023/11/20 16:47:10;;;;;;;13.88;9.10;;;;;;;;;;6229810;28;20554;-68
2023/11/20 16:50:12;;;;;;;11.48;6.00;;;;;;;;;;6241694;27;20053;-68
2023/11/20 16:53:15;;;;;;;16.88;8.60;;;;;;;;;;6243650;27;20062;-68
2023/11/20 16:56:17;;;;;;;7.82;4.60;;;;;;;;;;6229887;28;20052;-68
2023/11/20 16:59:19;;;;;;;7.72;3.33;;;;;;;;;;6217151;28;20462;-68
2023/11/20 17:02:21;;;;;;;11.82;5.63;;;;;;;;;;6230993;28;20045;-69
2023/11/20 17:05:23;;;;;;;10.93;7.93;;;;;;;;;;6230690;28;20800;-69
2023/11/20 17:08:25;;;;;;;10.10;7.25;;;;;;;;;;6229008;28;20045;-69
2023/11/20 17:11:27;;;;;;;13.13;6.93;;;;;;;;;;6225934;28;20886;-70
2023/11/20 17:14:29;;;;;;;12.00;4.97;;;;;;;;;;6232282;28;20053;-69
2023/11/20 17:17:32;;;;;;;9.25;4.68;;;;;;;;;;6224948;28;20093;-69
2023/11/20 17:20:36;;;;;;;11.27;5.75;;;;;;;;;;6222265;28;20053;-69
2023/11/20 17:23:39;;;;;;;11.77;7.22;;;;;;;;;;6231402;28;20053;-69
2023/11/20 17:26:41;;;;;;;24.10;12.20;;;;;;;;;;6216363;27;20073;-69
2023/11/20 17:29:44;;;;;;;35.60;17.73;;;;;;;;;;6232439;27;20072;-69
2023/11/20 17:32:48;;;;;;;33.47;19.23;;;;;;;;;;6251051;27;20041;-70
2023/11/20 17:35:50;;;;;;;67.43;33.03;;;;;;;;;;6292919;27;20156;-70
2023/11/20 17:38:54;;;;;;;34.80;18.83;;;;;;;;;;6236064;28;20057;-69
2023/11/20 17:41:56;;;;;;;21.58;13.98;;;;;;;;;;6227598;28;20049;-69
2023/11/20 17:44:58;;;;;;;17.90;11.85;;;;;;;;;;6239143;28;20566;-69
2023/11/20 17:48:00;;;;;;;15.93;12.07;;;;;;;;;;6275803;28;20049;-69
2023/11/20 17:51:02;;;;;;;24.65;13.40;;;;;;;;;;6233276;27;20124;-69
2023/11/20 17:54:05;;;;;;;31.52;16.42;;;;;;;;;;6227780;28;20813;-69
2023/11/20 17:57:07;;;;;;;34.97;19.52;;;;;;;;;;6223278;28;20045;-69
2023/11/20 18:00:10;;;;;;;36.03;18.55;;;;;;;;;;6244061;28;20049;-69
2023/11/20 18:03:16;;;;;;;30.17;12.20;;;;;;;;;;6228777;28;20057;-69
2023/11/20 18:06:18;;;;;;;27.23;12.40;;;;;;;;;;6228523;28;20050;-69
2023/11/20 18:09:21;;;;;;;28.88;17.98;;;;;;;;;;6271765;28;20054;-69
2023/11/20 18:12:23;;;;;;;38.35;17.48;;;;;;;;;;6226107;28;20048;-69